Time;durP1;ratioP1;P1;durP2;ratioP2;P2;SDS_P1;SDS_P2;PMS_P1;PMS_P2;Temp;Humidity;BMP_temperature;BMP_pressure;BME280_temperature;BME280_humidity;BME280_pressure;Samples;Min_cycle;Max_cycle;Signal;HPM_P1;HPM_P2
2023/07/07 00:01:07;;;;;;;5.95;5.00;;;15.00;99.90;;;;;;4882450;29;20056;-77
2023/07/07 00:03:34;;;;;;;8.93;4.93;;;14.90;99.90;;;;;;4882247;29;20048;-77
2023/07/07 00:06:00;;;;;;;9.30;5.50;;;14.90;99.90;;;;;;4866900;29;20056;-77
2023/07/07 00:08:25;;;;;;;6.60;5.65;;;14.90;99.90;;;;;;4882047;29;20543;-78
2023/07/07 00:10:51;;;;;;;8.45;5.60;;;14.90;99.90;;;;;;4881838;29;20049;-78
2023/07/07 00:13:17;;;;;;;11.10;5.70;;;14.90;99.90;;;;;;4881873;29;20572;-78
2023/07/07 00:15:44;;;;;;;9.82;5.68;;;15.00;99.90;;;;;;4898753;29;20070;-77
2023/07/07 00:18:16;;;;;;;11.88;5.60;;;14.80;99.90;;;;;;4898749;29;20056;-78
2023/07/07 00:20:42;;;;;;;8.10;6.40;;;14.80;99.90;;;;;;4898812;29;20112;-77
2023/07/07 00:23:07;;;;;;;10.90;6.22;;;14.80;99.90;;;;;;4898605;29;20127;-77
2023/07/07 00:25:33;;;;;;;10.18;6.40;;;14.70;99.90;;;;;;4897467;29;20059;-78
2023/07/07 00:27:59;;;;;;;9.63;6.78;;;14.60;99.90;;;;;;4881383;29;20146;-77
2023/07/07 00:30:24;;;;;;;10.10;6.07;;;14.60;99.90;;;;;;4898216;29;20053;-77
2023/07/07 00:32:50;;;;;;;8.45;6.25;;;14.60;99.90;;;;;;4881327;29;20053;-78
2023/07/07 00:35:16;;;;;;;8.13;5.97;;;14.60;99.90;;;;;;4881492;29;20559;-77
2023/07/07 00:37:45;;;;;;;10.35;6.85;;;14.70;99.90;;;;;;4861943;29;20071;-77
2023/07/07 00:40:11;;;;;;;12.00;7.57;;;14.60;99.90;;;;;;4870874;29;20144;-78
2023/07/07 00:42:37;;;;;;;12.07;6.93;;;14.60;99.90;;;;;;4862743;29;20080;-76
2023/07/07 00:45:17;;;;;;;10.43;7.00;;;14.60;99.90;;;;;;4879357;29;20053;-77
2023/07/07 00:47:48;;;;;;;12.57;7.50;;;14.60;99.90;;;;;;4862688;29;20060;-78
2023/07/07 00:50:17;;;;;;;9.20;7.15;;;14.60;99.90;;;;;;4862833;29;20402;-78
2023/07/07 00:52:44;;;;;;;11.93;7.65;;;14.70;99.90;;;;;;4862610;29;20124;-78
2023/07/07 00:55:25;;;;;;;11.02;7.45;;;14.80;99.90;;;;;;4862113;29;20064;-77
2023/07/07 00:57:51;;;;;;;11.45;7.53;;;14.70;99.90;;;;;;4879366;29;20091;-78
2023/07/07 01:00:17;;;;;;;11.20;7.88;;;14.70;99.90;;;;;;4862614;29;20119;-78
2023/07/07 01:02:57;;;;;;;12.50;8.00;;;14.70;99.90;;;;;;4862590;29;20409;-78
2023/07/07 01:05:30;;;;;;;13.57;8.65;;;14.80;99.90;;;;;;4862318;29;20064;-78
2023/07/07 01:08:01;;;;;;;10.85;8.65;;;14.80;99.90;;;;;;4862414;29;20061;-77
2023/07/07 01:10:26;;;;;;;9.57;7.85;;;14.80;99.90;;;;;;4877845;29;20135;-77
2023/07/07 01:12:52;;;;;;;13.77;9.10;;;14.80;99.90;;;;;;4878865;29;20056;-77
2023/07/07 01:15:21;;;;;;;13.07;8.93;;;14.70;99.90;;;;;;4861658;29;20049;-78
2023/07/07 01:18:08;;;;;;;12.90;9.20;;;14.70;99.90;;;;;;4861996;29;20072;-78
2023/07/07 01:21:01;;;;;;;12.88;9.02;;;14.80;99.90;;;;;;4862863;29;20506;-77
2023/07/07 01:23:43;;;;;;;12.68;9.13;;;14.80;99.90;;;;;;4880360;29;20048;-78
2023/07/07 01:26:51;;;;;;;15.02;9.45;;;14.80;99.90;;;;;;4880472;29;20059;-78
2023/07/07 01:29:38;;;;;;;12.02;9.32;;;14.70;99.90;;;;;;4859315;29;20096;-78
2023/07/07 01:32:09;;;;;;;17.65;10.20;;;14.70;99.90;;;;;;4880690;29;20048;-78
2023/07/07 01:34:35;;;;;;;12.73;10.05;;;14.60;99.90;;;;;;4880627;29;20122;-78
2023/07/07 01:37:01;;;;;;;14.32;10.55;;;14.60;99.90;;;;;;4864068;29;20531;-77
2023/07/07 01:39:27;;;;;;;15.02;10.77;;;14.50;99.90;;;;;;4872506;29;20049;-78
2023/07/07 01:42:04;;;;;;;14.40;10.65;;;14.50;99.90;;;;;;4865798;29;20053;-78
2023/07/07 01:44:39;;;;;;;17.50;10.77;;;14.50;99.90;;;;;;4861610;29;20076;-78
2023/07/07 01:47:18;;;;;;;13.15;9.90;;;14.50;99.90;;;;;;4861807;29;20067;-78
2023/07/07 01:49:59;;;;;;;17.33;11.27;;;14.50;99.90;;;;;;4861598;29;20060;-78
2023/07/07 01:52:47;;;;;;;15.23;10.93;;;14.50;99.90;;;;;;4862012;29;20053;-77
2023/07/07 01:55:18;;;;;;;14.95;10.07;;;14.40;99.90;;;;;;4861581;29;20470;-78
2023/07/07 01:57:46;;;;;;;18.63;10.65;;;14.40;99.90;;;;;;4861548;29;20493;-77
2023/07/07 02:00:15;;;;;;;18.60;10.88;;;14.40;99.90;;;;;;4878201;29;20404;-77
2023/07/07 02:02:40;;;;;;;17.85;10.38;;;14.40;99.90;;;;;;4878315;29;20061;-77
2023/07/07 02:05:07;;;;;;;17.70;11.35;;;14.50;99.90;;;;;;4861883;29;20053;-77
2023/07/07 02:07:33;;;;;;;26.08;12.55;;;14.40;99.90;;;;;;4861127;29;20065;-77
2023/07/07 02:09:59;;;;;;;16.23;11.55;;;14.40;99.90;;;;;;4861418;29;20060;-77
2023/07/07 02:12:25;;;;;;;21.98;14.40;;;14.40;99.90;;;;;;4845197;29;20425;-77
2023/07/07 02:14:50;;;;;;;21.25;15.07;;;14.60;99.90;;;;;;4861589;29;20505;-77
2023/07/07 02:17:16;;;;;;;22.25;12.10;;;14.70;99.90;;;;;;4861634;29;20049;-78
2023/07/07 02:19:42;;;;;;;15.43;11.93;;;14.60;99.90;;;;;;4861704;29;20053;-78
2023/07/07 02:22:08;;;;;;;21.33;13.93;;;14.60;99.90;;;;;;4877928;29;20057;-78
2023/07/07 02:24:34;;;;;;;19.95;12.82;;;14.50;99.90;;;;;;4861203;29;20197;-78
2023/07/07 02:27:01;;;;;;;18.23;12.27;;;14.40;99.90;;;;;;4877857;29;20423;-77
2023/07/07 02:29:27;;;;;;;13.88;11.52;;;14.40;99.90;;;;;;4861276;29;20080;-78
2023/07/07 02:31:53;;;;;;;18.88;12.45;;;14.30;99.90;;;;;;4878314;29;20045;-78
2023/07/07 02:34:18;;;;;;;20.35;14.23;;;14.20;99.90;;;;;;4861382;29;20473;-78
2023/07/07 02:36:44;;;;;;;20.15;13.73;;;14.30;99.90;;;;;;4860705;29;20048;-78
2023/07/07 02:39:10;;;;;;;23.50;14.45;;;14.20;99.90;;;;;;4862234;29;20071;-78
2023/07/07 02:41:36;;;;;;;19.85;13.77;;;14.20;99.90;;;;;;4892327;29;20041;-77
2023/07/07 02:44:01;;;;;;;24.15;13.82;;;14.20;99.90;;;;;;4896562;29;20057;-78
2023/07/07 02:46:27;;;;;;;20.38;13.98;;;14.20;99.90;;;;;;4896399;29;20108;-77
2023/07/07 02:48:53;;;;;;;19.85;15.30;;;14.20;99.90;;;;;;4881538;29;20052;-78
2023/07/07 02:51:18;;;;;;;23.20;14.77;;;14.30;99.90;;;;;;4900170;29;20071;-78
2023/07/07 02:53:44;;;;;;;22.38;14.95;;;14.30;99.90;;;;;;4900103;29;20567;-78
2023/07/07 02:56:10;;;;;;;22.35;14.18;;;14.20;99.90;;;;;;4900154;29;20143;-77
2023/07/07 02:58:35;;;;;;;22.75;14.18;;;14.20;99.90;;;;;;4883192;29;20052;-78
2023/07/07 03:01:17;;;;;;;21.92;14.45;;;14.20;99.90;;;;;;4883331;29;20438;-77
2023/07/07 03:03:45;;;;;;;24.17;13.43;;;14.20;99.90;;;;;;4899967;29;20076;-77
2023/07/07 03:06:15;;;;;;;19.20;13.55;;;14.10;99.90;;;;;;4882833;29;20045;-77
2023/07/07 03:08:42;;;;;;;22.55;14.13;;;14.10;99.90;;;;;;4882881;29;20057;-77
2023/07/07 03:11:10;;;;;;;21.15;13.98;;;14.00;99.90;;;;;;4882927;29;20057;-77
2023/07/07 03:13:36;;;;;;;19.92;13.38;;;13.90;99.90;;;;;;4899928;29;20154;-77
2023/07/07 03:16:12;;;;;;;22.00;14.98;;;13.90;99.90;;;;;;4883125;29;20463;-77
2023/07/07 03:18:41;;;;;;;20.90;14.27;;;14.00;99.90;;;;;;4899821;29;20068;-77
2023/07/07 03:21:08;;;;;;;24.30;15.73;;;13.90;99.90;;;;;;4882691;29;20128;-77
2023/07/07 03:23:35;;;;;;;20.23;14.52;;;13.80;99.90;;;;;;4882666;29;20056;-77
2023/07/07 03:26:08;;;;;;;25.65;16.13;;;13.90;99.90;;;;;;4882895;29;20453;-77
2023/07/07 03:28:34;;;;;;;20.38;15.25;;;14.00;99.90;;;;;;4883034;29;20255;-77
2023/07/07 03:31:10;;;;;;;23.98;14.93;;;13.90;99.90;;;;;;4882790;29;20060;-78
2023/07/07 03:33:39;;;;;;;20.42;14.52;;;13.90;99.90;;;;;;4882586;29;20051;-77
2023/07/07 03:36:05;;;;;;;20.33;14.48;;;14.00;99.90;;;;;;4882691;29;20056;-77
2023/07/07 03:38:31;;;;;;;21.55;13.82;;;14.00;99.90;;;;;;4899256;29;20488;-77
2023/07/07 03:40:56;;;;;;;22.08;14.40;;;14.00;99.90;;;;;;4891964;29;20053;-77
2023/07/07 03:43:22;;;;;;;25.85;14.57;;;14.00;99.90;;;;;;4899013;29;20053;-77
2023/07/07 03:45:48;;;;;;;23.73;14.00;;;13.90;99.90;;;;;;4882602;29;20139;-77
2023/07/07 03:48:13;;;;;;;25.52;15.00;;;13.90;99.90;;;;;;4898937;29;20096;-77
2023/07/07 03:50:39;;;;;;;26.17;15.60;;;13.90;99.90;;;;;;4899188;29;20074;-77
2023/07/07 03:53:05;;;;;;;25.35;15.10;;;13.90;99.90;;;;;;4899141;29;20044;-77
2023/07/07 03:55:31;;;;;;;22.73;14.90;;;14.00;99.90;;;;;;4882167;29;20420;-77
2023/07/07 03:57:57;;;;;;;20.77;14.77;;;14.00;99.90;;;;;;4882152;29;20220;-77
2023/07/07 04:00:23;;;;;;;25.33;14.75;;;14.10;99.90;;;;;;4881470;29;20052;-77
2023/07/07 04:02:49;;;;;;;20.33;14.60;;;14.20;99.90;;;;;;4898828;29;20421;-77
2023/07/07 04:05:15;;;;;;;20.08;14.65;;;14.20;99.90;;;;;;4899071;29;20049;-77
2023/07/07 04:07:41;;;;;;;23.27;14.40;;;14.30;99.90;;;;;;4882002;29;20060;-77
2023/07/07 04:10:08;;;;;;;25.08;14.60;;;14.40;99.90;;;;;;4899053;29;20048;-77
2023/07/07 04:12:34;;;;;;;18.73;12.95;;;14.40;99.90;;;;;;4899116;29;20457;-77
2023/07/07 04:15:00;;;;;;;17.52;12.82;;;14.50;99.90;;;;;;4898650;29;20102;-77
2023/07/07 04:17:26;;;;;;;24.23;14.75;;;14.60;99.90;;;;;;4881106;29;20056;-77
2023/07/07 04:19:53;;;;;;;20.25;14.65;;;14.60;99.90;;;;;;4866212;29;20052;-77
2023/07/07 04:22:19;;;;;;;20.75;14.13;;;14.80;99.90;;;;;;4881581;29;20468;-77
2023/07/07 04:24:44;;;;;;;19.33;14.32;;;14.80;99.90;;;;;;4898569;29;20053;-77
2023/07/07 04:27:10;;;;;;;21.13;14.50;;;14.80;99.90;;;;;;4881401;29;20060;-77
2023/07/07 04:29:36;;;;;;;22.27;14.20;;;14.90;99.90;;;;;;4898537;29;20053;-77
2023/07/07 04:32:03;;;;;;;24.80;14.43;;;14.90;99.90;;;;;;4881273;29;20053;-77
2023/07/07 04:34:30;;;;;;;20.90;14.10;;;15.00;99.90;;;;;;4881435;29;20124;-77
2023/07/07 04:36:56;;;;;;;20.95;14.38;;;15.00;99.90;;;;;;4881120;29;20072;-77
2023/07/07 04:39:22;;;;;;;20.50;13.32;;;15.10;99.90;;;;;;4881557;29;20048;-77
2023/07/07 04:41:50;;;;;;;21.25;13.98;;;15.20;99.90;;;;;;4875456;29;20135;-77
2023/07/07 04:44:16;;;;;;;21.35;14.48;;;15.30;99.90;;;;;;4870826;29;20061;-76
2023/07/07 04:46:42;;;;;;;22.55;13.45;;;15.40;99.90;;;;;;4879576;29;20061;-77
2023/07/07 04:49:08;;;;;;;20.02;13.80;;;15.60;99.90;;;;;;4879475;29;20053;-77
2023/07/07 04:51:39;;;;;;;20.75;13.07;;;15.70;99.90;;;;;;4879571;29;20053;-77
2023/07/07 04:54:09;;;;;;;20.02;14.38;;;15.70;99.90;;;;;;4879193;29;20060;-77
2023/07/07 04:56:35;;;;;;;20.25;13.23;;;15.90;99.90;;;;;;4879249;29;20053;-77
2023/07/07 04:59:02;;;;;;;20.13;13.05;;;16.00;99.90;;;;;;4862738;29;20061;-77
2023/07/07 05:01:29;;;;;;;17.73;13.05;;;16.00;99.90;;;;;;4862472;29;20131;-77
2023/07/07 05:03:57;;;;;;;18.33;13.07;;;16.20;99.90;;;;;;4862501;29;20056;-77
2023/07/07 05:06:25;;;;;;;21.35;13.80;;;16.20;99.90;;;;;;4862221;29;20065;-77
2023/07/07 05:08:51;;;;;;;21.52;12.45;;;16.20;99.90;;;;;;4862833;29;20158;-77
2023/07/07 05:11:20;;;;;;;18.85;12.57;;;16.40;99.90;;;;;;4862130;29;20108;-77
2023/07/07 05:13:46;;;;;;;19.58;13.02;;;16.60;99.90;;;;;;4862052;29;20059;-77
2023/07/07 05:16:13;;;;;;;18.85;13.48;;;16.70;99.90;;;;;;4861312;29;20056;-77
2023/07/07 05:18:40;;;;;;;22.60;13.55;;;16.70;99.90;;;;;;4862251;29;20064;-77
2023/07/07 05:21:07;;;;;;;19.80;12.68;;;16.80;99.90;;;;;;4862168;29;20063;-77
2023/07/07 05:23:34;;;;;;;17.20;12.52;;;17.00;99.90;;;;;;4862246;29;20060;-77
2023/07/07 05:26:00;;;;;;;21.65;14.13;;;17.10;99.90;;;;;;4878582;29;20227;-76
2023/07/07 05:28:26;;;;;;;21.10;12.70;;;17.20;99.90;;;;;;4862134;29;20053;-77
2023/07/07 05:30:52;;;;;;;20.27;12.18;;;17.30;99.90;;;;;;4878466;29;20089;-77
2023/07/07 05:33:19;;;;;;;18.08;12.48;;;17.40;99.90;;;;;;4862443;29;20131;-78
2023/07/07 05:35:49;;;;;;;21.00;12.77;;;17.50;99.90;;;;;;4862051;29;20096;-78
2023/07/07 05:38:16;;;;;;;20.50;12.55;;;17.70;99.90;;;;;;4861634;29;20076;-77
2023/07/07 05:40:43;;;;;;;19.50;12.75;;;17.80;99.90;;;;;;4878325;29;20501;-77
2023/07/07 05:43:09;;;;;;;17.85;12.15;;;17.80;99.90;;;;;;4867625;29;20052;-77
2023/07/07 05:45:35;;;;;;;21.98;12.40;;;17.90;99.90;;;;;;4872796;29;20056;-77
2023/07/07 05:48:01;;;;;;;18.13;12.70;;;18.00;99.90;;;;;;4880429;29;20079;-78
2023/07/07 05:50:27;;;;;;;15.05;10.95;;;18.10;99.90;;;;;;4880466;29;20092;-77
2023/07/07 05:52:52;;;;;;;18.60;10.93;;;18.20;99.90;;;;;;4880062;29;20060;-78
2023/07/07 05:55:33;;;;;;;14.82;11.45;;;18.30;99.90;;;;;;4896833;29;20067;-78
2023/07/07 05:58:00;;;;;;;17.45;10.82;;;18.50;99.90;;;;;;4897041;29;20048;-79
2023/07/07 06:00:27;;;;;;;15.10;10.35;;;18.60;99.90;;;;;;4896810;29;20049;-83
2023/07/07 06:02:54;;;;;;;17.40;10.93;;;18.70;99.90;;;;;;4880472;29;20064;-84
2023/07/07 06:05:20;;;;;;;15.68;10.13;;;18.80;99.90;;;;;;4880445;29;20057;-83
2023/07/07 06:07:46;;;;;;;16.38;10.43;;;18.90;99.90;;;;;;4880229;29;20063;-83
2023/07/07 06:10:12;;;;;;;14.80;9.82;;;19.00;99.90;;;;;;4876186;29;20160;-82
2023/07/07 06:12:38;;;;;;;12.52;9.65;;;19.10;99.90;;;;;;4885775;29;20576;-81
2023/07/07 06:15:05;;;;;;;17.30;9.48;;;19.20;99.90;;;;;;4911044;29;20058;-82
2023/07/07 06:17:31;;;;;;;16.63;10.25;;;19.30;99.90;;;;;;4889637;29;20131;-83
2023/07/07 06:19:57;;;;;;;14.05;8.45;;;19.40;99.90;;;;;;4897656;29;20079;-83
2023/07/07 06:22:23;;;;;;;14.88;9.90;;;19.50;99.90;;;;;;4892710;29;20518;-83
2023/07/07 06:24:50;;;;;;;12.32;8.80;;;19.50;99.90;;;;;;4899040;29;20124;-82
2023/07/07 06:27:16;;;;;;;16.63;9.27;;;19.70;99.90;;;;;;4909006;29;20044;-82
2023/07/07 06:29:41;;;;;;;13.75;8.73;;;19.70;99.90;;;;;;4900610;29;20519;-84
2023/07/07 06:32:08;;;;;;;10.88;7.97;;;19.80;99.90;;;;;;4889157;29;20051;-83
2023/07/07 06:34:33;;;;;;;13.00;8.38;;;19.80;99.90;;;;;;4922208;29;20504;-83
2023/07/07 06:36:59;;;;;;;12.60;7.78;;;19.90;99.90;;;;;;4889080;29;20052;-83
2023/07/07 06:39:29;;;;;;;12.07;8.07;;;20.10;99.90;;;;;;4905088;29;20060;-81
2023/07/07 06:41:55;;;;;;;14.65;8.18;;;20.10;99.90;;;;;;4921640;29;20052;-82
2023/07/07 06:44:21;;;;;;;13.02;7.60;;;20.10;99.90;;;;;;4897121;29;20054;-83
2023/07/07 06:46:47;;;;;;;11.65;7.18;;;20.30;99.90;;;;;;4900440;29;20040;-77
2023/07/07 06:49:13;;;;;;;13.15;7.65;;;20.40;99.90;;;;;;4867183;29;20052;-78
2023/07/07 06:51:39;;;;;;;13.85;6.82;;;20.30;99.90;;;;;;4883488;29;20492;-77
2023/07/07 06:54:04;;;;;;;11.20;6.90;;;20.40;99.90;;;;;;4870725;29;20067;-77
2023/07/07 06:56:30;;;;;;;12.95;6.47;;;20.60;99.90;;;;;;4866742;29;20071;-77
2023/07/07 06:58:56;;;;;;;9.98;6.25;;;20.70;99.90;;;;;;4876600;29;20116;-78
2023/07/07 07:01:22;;;;;;;10.05;6.03;;;20.80;99.90;;;;;;4904315;29;20508;-77
2023/07/07 07:03:48;;;;;;;7.85;5.50;;;20.80;99.90;;;;;;4879555;29;20079;-72
2023/07/07 07:06:14;;;;;;;11.95;4.93;;;20.80;99.90;;;;;;4901695;29;20091;-72
2023/07/07 07:08:40;;;;;;;8.07;4.35;;;20.80;99.90;;;;;;4894831;29;20100;-77
2023/07/07 07:11:08;;;;;;;8.32;4.57;;;21.00;99.90;;;;;;4868135;29;20061;-81
2023/07/07 07:13:34;;;;;;;12.80;4.50;;;21.10;99.90;;;;;;4866292;29;20056;-73
2023/07/07 07:16:00;;;;;;;7.82;4.65;;;20.90;99.90;;;;;;4866015;29;20425;-72
2023/07/07 07:18:26;;;;;;;6.63;4.20;;;21.10;99.90;;;;;;4882872;29;20135;-72
2023/07/07 07:20:54;;;;;;;9.52;4.57;;;21.20;99.90;;;;;;4866121;29;20053;-72
2023/07/07 07:23:21;;;;;;;7.18;3.83;;;21.30;99.90;;;;;;4866154;29;20776;-72
2023/07/07 07:25:48;;;;;;;7.40;3.70;;;21.40;99.90;;;;;;4865470;29;20053;-73
2023/07/07 07:28:15;;;;;;;8.55;3.88;;;21.50;99.90;;;;;;4882642;29;20111;-73
2023/07/07 07:30:41;;;;;;;7.82;4.00;;;21.60;99.90;;;;;;4882564;29;20049;-73
2023/07/07 07:33:12;;;;;;;6.00;3.70;;;21.70;99.90;;;;;;4882769;29;20125;-72
2023/07/07 07:35:38;;;;;;;6.70;3.15;;;21.70;99.90;;;;;;4862699;29;20118;-72
2023/07/07 07:38:04;;;;;;;6.30;3.55;;;21.90;99.90;;;;;;4847401;29;20089;-73
2023/07/07 07:40:30;;;;;;;5.07;3.30;;;22.00;99.90;;;;;;4847338;29;20061;-73
2023/07/07 07:42:56;;;;;;;8.27;3.15;;;22.00;99.90;;;;;;4879950;29;20056;-73
2023/07/07 07:45:23;;;;;;;10.10;3.75;;;22.20;99.90;;;;;;4879856;29;20472;-72
2023/07/07 07:47:51;;;;;;;9.13;2.60;;;22.20;99.90;;;;;;4879689;29;20061;-72
2023/07/07 07:50:18;;;;;;;4.25;2.63;;;22.20;99.90;;;;;;4862869;29;20049;-79
2023/07/07 07:52:44;;;;;;;8.20;3.13;;;22.30;99.90;;;;;;4848567;29;20057;-80
2023/07/07 07:55:13;;;;;;;7.78;2.83;;;22.30;99.90;;;;;;4863269;29;20057;-73
2023/07/07 07:57:40;;;;;;;6.72;3.15;;;22.40;99.90;;;;;;4880389;29;20068;-79
2023/07/07 08:00:06;;;;;;;6.25;2.35;;;22.50;99.90;;;;;;4863438;29;20080;-78
2023/07/07 08:02:32;;;;;;;8.75;2.75;;;22.70;99.90;;;;;;4880190;29;20065;-77
2023/07/07 08:04:57;;;;;;;8.55;2.88;;;22.70;99.90;;;;;;4878803;29;20063;-77
2023/07/07 08:07:25;;;;;;;7.35;2.30;;;22.70;99.90;;;;;;4863311;29;20049;-78
2023/07/07 08:09:51;;;;;;;4.82;2.20;;;22.80;99.90;;;;;;4863173;29;20065;-77
2023/07/07 08:12:17;;;;;;;6.07;2.25;;;22.90;99.90;;;;;;4863284;29;20064;-77
2023/07/07 08:14:42;;;;;;;4.45;2.35;;;22.90;99.90;;;;;;4880049;29;20049;-79
2023/07/07 08:17:12;;;;;;;6.57;2.28;;;22.80;99.90;;;;;;4863246;29;20132;-79
2023/07/07 08:19:40;;;;;;;7.55;2.80;;;23.00;99.90;;;;;;4863231;29;20466;-79
2023/07/07 08:22:10;;;;;;;5.55;2.30;;;23.00;99.90;;;;;;4862850;29;20131;-76
2023/07/07 08:24:43;;;;;;;5.50;2.55;;;23.00;99.90;;;;;;4878912;29;20067;-76
2023/07/07 08:27:10;;;;;;;6.22;2.28;;;23.00;99.90;;;;;;4879445;29;20109;-75
2023/07/07 08:29:37;;;;;;;7.22;2.17;;;23.10;99.90;;;;;;4866018;29;20588;-75
2023/07/07 08:32:03;;;;;;;6.78;2.45;;;23.10;99.90;;;;;;4865176;29;20063;-75
2023/07/07 08:34:30;;;;;;;5.05;2.03;;;23.30;99.90;;;;;;4897440;29;20048;-75
2023/07/07 08:36:59;;;;;;;3.45;1.88;;;23.40;99.90;;;;;;4897749;29;20093;-75
2023/07/07 08:39:28;;;;;;;5.85;2.45;;;23.40;99.90;;;;;;4897918;29;20131;-76
2023/07/07 08:42:03;;;;;;;5.03;2.10;;;23.50;99.90;;;;;;4881244;29;20049;-75
2023/07/07 08:44:32;;;;;;;3.38;2.20;;;23.40;99.90;;;;;;4897812;29;20057;-76
2023/07/07 08:47:21;;;;;;;3.88;1.58;;;23.50;99.90;;;;;;4897215;29;20516;-75
2023/07/07 08:50:31;;;;;;;6.43;1.60;;;23.50;99.90;;;;;;4880736;29;20060;-75
2023/07/07 08:53:15;;;;;;;3.70;1.75;;;23.60;99.90;;;;;;4823831;29;20077;-74
2023/07/07 08:55:57;;;;;;;2.97;1.88;;;23.60;99.90;;;;;;4875907;29;20131;-74
2023/07/07 08:58:36;;;;;;;3.78;2.00;;;23.70;99.10;;;;;;4897691;29;20060;-75
2023/07/07 09:01:21;;;;;;;4.80;2.67;;;23.70;99.20;;;;;;4880714;29;20147;-75
2023/07/07 09:04:14;;;;;;;7.93;2.33;;;23.80;99.60;;;;;;4897399;29;20048;-76
2023/07/07 09:06:54;;;;;;;2.47;1.65;;;23.70;99.90;;;;;;4897195;29;20053;-75
2023/07/07 09:09:32;;;;;;;6.93;2.20;;;23.70;97.80;;;;;;4880344;29;20521;-75
2023/07/07 09:12:24;;;;;;;4.03;1.63;;;23.80;98.60;;;;;;4880295;29;20055;-75
2023/07/07 09:14:52;;;;;;;4.15;1.88;;;23.90;98.60;;;;;;4897260;29;20091;-76
2023/07/07 09:17:30;;;;;;;4.72;1.92;;;23.90;99.90;;;;;;4879987;29;20063;-75
2023/07/07 09:19:59;;;;;;;3.55;1.75;;;24.00;99.60;;;;;;4897090;29;20049;-76
2023/07/07 09:22:38;;;;;;;4.60;2.05;;;24.10;99.50;;;;;;4897053;29;20056;-76
2023/07/07 09:25:12;;;;;;;3.85;2.10;;;24.00;99.90;;;;;;4897076;29;20065;-75
2023/07/07 09:28:05;;;;;;;6.75;1.90;;;24.10;97.90;;;;;;4896919;29;20197;-75
2023/07/07 09:31:16;;;;;;;5.75;2.03;;;24.10;98.30;;;;;;4890765;29;20127;-75
2023/07/07 09:33:42;;;;;;;4.50;2.10;;;24.10;98.00;;;;;;4874461;29;20560;-75
2023/07/07 09:36:37;;;;;;;7.32;2.45;;;24.10;98.70;;;;;;4896523;29;20061;-75
2023/07/07 09:39:27;;;;;;;9.98;1.85;;;24.20;98.60;;;;;;4893466;29;20500;-75
2023/07/07 09:42:22;;;;;;;3.20;1.92;;;24.20;98.80;;;;;;4880126;29;20131;-75
2023/07/07 09:45:06;;;;;;;4.07;1.77;;;24.30;98.60;;;;;;4879971;29;20147;-75
2023/07/07 09:47:53;;;;;;;2.83;1.65;;;24.40;99.10;;;;;;4879862;29;20060;-75
2023/07/07 09:50:28;;;;;;;3.47;1.83;;;24.50;98.10;;;;;;4879583;29;20080;-76
2023/07/07 09:53:08;;;;;;;5.05;2.33;;;24.50;98.20;;;;;;4879826;29;20516;-75
2023/07/07 09:55:36;;;;;;;3.65;1.88;;;24.50;97.50;;;;;;4879515;29;20063;-75
2023/07/07 09:58:20;;;;;;;3.40;1.70;;;24.50;98.70;;;;;;4878703;29;20057;-76
2023/07/07 10:00:51;;;;;;;3.38;1.90;;;24.60;97.80;;;;;;4890755;29;20465;-79
2023/07/07 10:03:46;;;;;;;5.40;2.05;;;24.50;97.90;;;;;;4898037;29;20055;-78
2023/07/07 10:06:27;;;;;;;2.65;1.75;;;24.40;96.60;;;;;;4871319;29;20104;-79
2023/07/07 10:08:53;;;;;;;4.43;1.73;;;24.60;98.50;;;;;;4887883;29;20390;-79
2023/07/07 10:11:32;;;;;;;4.97;2.45;;;24.60;98.50;;;;;;4870041;29;20497;-79
2023/07/07 10:13:59;;;;;;;3.10;2.05;;;24.50;97.10;;;;;;4887673;29;20120;-79
2023/07/07 10:16:32;;;;;;;3.95;1.95;;;24.60;98.40;;;;;;4869596;29;20127;-79
2023/07/07 10:19:09;;;;;;;6.88;2.50;;;24.60;97.50;;;;;;4868703;29;20061;-79
2023/07/07 10:21:35;;;;;;;4.63;2.10;;;24.50;97.40;;;;;;4885196;29;20053;-79
2023/07/07 10:24:01;;;;;;;8.15;3.38;;;24.70;98.80;;;;;;4885838;29;20049;-79
2023/07/07 10:26:27;;;;;;;5.38;2.28;;;24.60;96.70;;;;;;4869290;29;20049;-79
2023/07/07 10:28:57;;;;;;;4.05;2.15;;;24.60;98.00;;;;;;4870821;29;20117;-79
2023/07/07 10:31:24;;;;;;;4.55;1.95;;;24.70;98.10;;;;;;4879696;29;20052;-79
2023/07/07 10:33:56;;;;;;;4.35;2.40;;;24.80;98.00;;;;;;4879613;29;20072;-79
2023/07/07 10:36:30;;;;;;;4.63;2.47;;;24.80;98.00;;;;;;4879922;29;20053;-79
2023/07/07 10:38:57;;;;;;;9.63;2.10;;;24.80;96.60;;;;;;4880041;29;20049;-79
2023/07/07 10:41:27;;;;;;;4.72;1.92;;;24.80;96.60;;;;;;4879800;29;20053;-79
2023/07/07 10:43:53;;;;;;;3.65;2.05;;;24.80;97.30;;;;;;4879937;29;20412;-79
2023/07/07 10:46:19;;;;;;;6.40;2.35;;;24.80;97.10;;;;;;4879730;29;20064;-79
2023/07/07 10:48:46;;;;;;;3.05;2.08;;;24.90;97.00;;;;;;4879365;29;20060;-79
2023/07/07 10:51:20;;;;;;;6.18;2.80;;;24.80;96.70;;;;;;4896211;29;20053;-78
2023/07/07 10:54:14;;;;;;;5.07;2.25;;;24.70;95.90;;;;;;4863902;29;20056;-78
2023/07/07 10:56:45;;;;;;;3.42;2.35;;;24.70;95.80;;;;;;4879579;29;20072;-79
2023/07/07 10:59:29;;;;;;;3.83;2.00;;;24.90;96.60;;;;;;4879433;29;20061;-79
2023/07/07 11:02:33;;;;;;;5.53;1.83;;;24.90;95.40;;;;;;4879611;29;20056;-79
2023/07/07 11:05:32;;;;;;;4.80;2.30;;;25.00;96.40;;;;;;4879195;29;20493;-79
2023/07/07 11:08:20;;;;;;;3.40;1.90;;;25.10;94.80;;;;;;4879459;29;20048;-78
2023/07/07 11:10:55;;;;;;;2.97;1.90;;;25.20;96.30;;;;;;4882364;29;20088;-78
2023/07/07 11:13:27;;;;;;;2.83;1.70;;;25.20;96.20;;;;;;4882895;29;20048;-78
2023/07/07 11:15:58;;;;;;;3.53;1.80;;;25.30;96.10;;;;;;4882886;29;20108;-78
2023/07/07 11:18:48;;;;;;;3.50;1.90;;;25.30;95.20;;;;;;4882667;29;20056;-78
2023/07/07 11:21:26;;;;;;;4.30;2.50;;;25.30;95.20;;;;;;4882179;29;20068;-78
2023/07/07 11:24:17;;;;;;;6.03;1.90;;;25.30;95.00;;;;;;4883326;29;20048;-79
2023/07/07 11:27:27;;;;;;;5.32;1.88;;;25.40;93.50;;;;;;4882459;29;20051;-78
2023/07/07 11:30:09;;;;;;;4.00;1.92;;;25.40;94.10;;;;;;4844479;29;20082;-79
2023/07/07 11:33:18;;;;;;;3.75;2.08;;;25.40;92.40;;;;;;4844207;29;20102;-79
2023/07/07 11:36:05;;;;;;;5.60;1.98;;;25.50;93.00;;;;;;4894207;29;20572;-79
2023/07/07 11:38:33;;;;;;;4.95;2.22;;;25.30;94.00;;;;;;4899649;29;20048;-79
2023/07/07 11:41:14;;;;;;;2.97;1.90;;;25.30;92.50;;;;;;4882434;29;20516;-78
2023/07/07 11:43:51;;;;;;;4.32;2.15;;;25.30;91.90;;;;;;4883749;29;20390;-79
2023/07/07 11:46:25;;;;;;;4.75;2.15;;;25.30;92.40;;;;;;4882497;29;20556;-79
2023/07/07 11:48:54;;;;;;;2.85;1.63;;;25.30;92.50;;;;;;4882417;29;20060;-79
2023/07/07 11:51:26;;;;;;;3.10;1.88;;;25.20;91.60;;;;;;4882383;29;20056;-79
2023/07/07 11:54:16;;;;;;;4.88;2.13;;;25.20;91.30;;;;;;4896816;29;20056;-79
2023/07/07 11:57:02;;;;;;;3.92;1.90;;;25.30;91.70;;;;;;4882257;29;20088;-79
2023/07/07 12:00:05;;;;;;;3.75;1.65;;;25.30;92.00;;;;;;4882278;29;20068;-79
2023/07/07 12:02:56;;;;;;;4.25;2.10;;;25.50;90.80;;;;;;4881516;29;20497;-79
2023/07/07 12:05:29;;;;;;;3.67;1.83;;;25.30;90.90;;;;;;4898998;29;20053;-79
2023/07/07 12:08:01;;;;;;;7.15;2.00;;;25.30;91.20;;;;;;4882069;29;20234;-75
2023/07/07 12:10:55;;;;;;;3.30;1.92;;;25.30;91.00;;;;;;4881872;29;20065;-76
2023/07/07 12:13:28;;;;;;;2.75;1.52;;;25.40;90.30;;;;;;4899052;29;20048;-77
2023/07/07 12:16:18;;;;;;;3.03;1.88;;;25.40;90.50;;;;;;4881206;29;20060;-77
2023/07/07 12:18:48;;;;;;;3.88;2.17;;;25.50;90.20;;;;;;4898402;29;20123;-77
2023/07/07 12:21:28;;;;;;;5.45;1.73;;;25.60;91.50;;;;;;4880892;29;20101;-77
2023/07/07 12:24:01;;;;;;;4.20;1.90;;;25.70;92.30;;;;;;4898132;29;20136;-77
2023/07/07 12:26:32;;;;;;;2.58;1.63;;;25.70;91.90;;;;;;4897721;29;20413;-77
2023/07/07 12:29:01;;;;;;;4.67;2.20;;;25.70;90.70;;;;;;4881447;29;20060;-77
2023/07/07 12:31:28;;;;;;;3.65;2.03;;;25.60;91.10;;;;;;4881385;29;20633;-78
2023/07/07 12:33:54;;;;;;;3.15;1.85;;;25.70;91.40;;;;;;4881754;29;20128;-78
2023/07/07 12:36:30;;;;;;;3.97;2.00;;;25.70;91.60;;;;;;4881509;29;20060;-78
2023/07/07 12:39:00;;;;;;;3.45;2.00;;;25.70;90.70;;;;;;4881531;29;20064;-78
2023/07/07 12:41:28;;;;;;;2.97;1.88;;;25.70;90.80;;;;;;4881053;29;20068;-77
2023/07/07 12:44:04;;;;;;;4.82;1.77;;;25.70;90.10;;;;;;4881319;29;20045;-78
2023/07/07 12:46:33;;;;;;;3.83;2.03;;;25.70;84.90;;;;;;4880855;29;20048;-78
2023/07/07 12:49:21;;;;;;;2.80;1.90;;;25.80;90.20;;;;;;4881117;29;20058;-78
2023/07/07 12:51:55;;;;;;;2.67;2.05;;;25.70;85.40;;;;;;4881279;29;20060;-78
2023/07/07 12:54:36;;;;;;;3.50;1.92;;;25.70;86.70;;;;;;4881122;29;20444;-78
2023/07/07 12:57:24;;;;;;;3.10;1.90;;;25.80;90.00;;;;;;4881233;29;20132;-78
2023/07/07 12:59:50;;;;;;;3.22;1.98;;;25.90;90.30;;;;;;4880870;29;20091;-78